NWWWNVSS

Guest
Details From NWWW - Noumea La Tontouta
To NVSS - Santo Pekoa Intl
Flight Number -
Tags generated
Created
Modified
Stats Distance 428 nm / 792 km
Max Altitude 35,000 ft / 10,668 m
Waypoints 7
Social Downloads 0
Likes 0
Share VATSIM

Download

Looking for another format? Having issues loading an existing format? Contact us
Advertisement - Login to hide

Notes

Basic altitude profile: - Ascent Rate: 2500ft/min - Ascent Speed: 250kts - Cruise Altitude: 35000ft - Cruise Speed: 420kts - Descent Rate: 1500ft/min - Descent Speed: 250kts

Route

NWWW LTO B590 VLI 3E103 CB NVSS

ID Type Via Altitude (ft/m) Position (lat/lon) Dist (leg/tot) Name
O NWWW APT - 0 / 0 -22.01453 / 166.21302 - / 0 nm Noumea La Tontouta
LTO VOR - 200 / 61 -22.00511 / 166.21178 0 / 0 nm LA TONTOUTA VOR-DME
NIPOG FIX B590 (AWY-HI) 35,000 / 10,668 -19.50000 / 167.39333 164 / 165 nm
LEDIT FIX B590 (AWY-HI) 35,000 / 10,668 -18.54500 / 167.83667 62 / 227 nm
VLI VOR B590 (AWY-HI) 29,500 / 8,992 -17.66222 / 168.24389 57 / 285 nm BAUERFIELD VOR-DME
CB NDB 3E103 (AWY-HI) 9,500 / 2,896 -16.94772 / 167.91175 46 / 332 nm
O NVSS APT - 0 / 0 -15.50456 / 167.21969 95 / 427 nm Santo Pekoa Intl

Altitude Profile

Advertisement - Login to hide

Weather


0- 5 10 15 20 25 30 35+ Temperature / °C

Clouds and Precipitation
Forecast for 2019-05-22 00:00 UTC. Updated 3 hours ago

Ground ~20,000 ft ~40,000 ft Winds

NWWW

Details ICAO NWWW (NOU)
Name Noumea La Tontouta
Region New Caledonia
Timezone Pacific/Noumea (UTC+11.0)
Stats Elevation 50 ft / 15 m (AMSL)
Location -22.014500° 166.213000°
Runways 1
Magnetic Variation 12.377° E

METAR

NWWW 220000Z AUTO 14008KT 100V180 9999 SCT049 BKN056 25/14 Q1020 BECMG 14018KT

Decode

TAF

TAF NWWW 212300Z 2200/2224 14018KT 9999 FEW045 BECMG 2208/2210 VRB02KT

Decode

Departure Runways

ID Width Length Bearing (true/mag) Surface Threshold Overrun Markings Lighting
11 148 ft / 45 m 10,673 ft / 3,253 m 121.25° / 108.87° ASPHALT 0 ft / 0 m 328 ft / 100 m PREC-APP CENTERLINE EDGE THRESHOLD ALSF-I
29 148 ft / 45 m 10,673 ft / 3,253 m 301.24° / 288.86° ASPHALT 0 ft / 0 m 325 ft / 99 m APP CENTERLINE EDGE THRESHOLD

NVSS

Details ICAO NVSS (SON)
Name Santo Pekoa Intl
Region Vanuatu
Timezone Pacific/Efate (UTC+11.0)
Stats Elevation 184 ft / 56 m (AMSL)
Location -15.504600° 167.220000°
Runways 1
Magnetic Variation 10.962° E

METAR

NVSS 220000Z 13013KT 9999 SCT025 BKN120 28/22 Q1015

Decode

TAF

TAF NVSS 212220Z 2200/2224 12013KT 9999 SCT020 INTER 2200/2206 9000 -SHRA BKN018

Decode

Destination Runways

ID Width Length Bearing (true/mag) Surface Threshold Overrun Markings Lighting
12 98 ft / 30 m 6,569 ft / 2,002 m 129.30° / 118.34° ASPHALT 0 ft / 0 m 203 ft / 62 m APP EDGE THRESHOLD
30 98 ft / 30 m 6,569 ft / 2,002 m 309.30° / 298.34° ASPHALT 0 ft / 0 m 194 ft / 59 m APP EDGE THRESHOLD